createdAt,value
2022-08-10T00:00:43.898Z,28.13
2022-08-10T00:07:15.831Z,28.13
2022-08-10T00:13:39.434Z,28.16
2022-08-10T00:20:02.828Z,28.16
2022-08-10T00:27:46.991Z,28.16
2022-08-10T00:33:26.983Z,28.18
2022-08-10T00:39:54.222Z,28.14
2022-08-10T00:46:18.909Z,28.13
2022-08-10T00:52:49.785Z,28.13
2022-08-10T00:59:27.030Z,28.17
2022-08-10T01:05:55.886Z,28.12
2022-08-10T01:12:55.385Z,28.08
2022-08-10T01:20:02.455Z,28.18
2022-08-10T01:27:19.338Z,28.15
2022-08-10T01:34:27.977Z,28.22
2022-08-10T01:41:23.893Z,28.15
2022-08-10T01:48:19.002Z,28.17
2022-08-10T01:55:18.547Z,28.3
2022-08-10T02:02:11.919Z,28.06
2022-08-10T02:08:48.215Z,28.09
2022-08-10T02:16:01.754Z,28.03
2022-08-10T02:22:47.328Z,28
2022-08-10T02:29:24.190Z,27.94
2022-08-10T02:36:04.998Z,27.97
2022-08-10T02:45:16.402Z,27.96
2022-08-10T02:50:19.001Z,27.93
2022-08-10T02:57:19.055Z,27.97
2022-08-10T03:04:54.384Z,27.99
2022-08-10T03:12:16.626Z,27.98
2022-08-10T03:18:29.062Z,27.96
2022-08-10T03:25:17.464Z,27.99
2022-08-10T03:31:50.115Z,27.98
2022-08-10T03:38:21.067Z,27.99
2022-08-10T03:44:58.270Z,28
2022-08-10T03:51:37.068Z,27.95
2022-08-10T03:58:02.051Z,27.96
2022-08-10T04:04:35.077Z,27.93
2022-08-10T04:11:05.254Z,27.68
2022-08-10T04:17:56.539Z,27.47
2022-08-10T04:24:47.422Z,27.4
2022-08-10T04:31:14.104Z,27.36
2022-08-10T04:37:51.096Z,27.29
2022-08-10T04:44:23.108Z,27.27
2022-08-10T04:50:57.423Z,27.28
2022-08-10T04:57:42.147Z,27.26
2022-08-10T05:04:33.077Z,27.22
2022-08-10T05:11:01.110Z,27.18
2022-08-10T05:17:32.921Z,27.17
2022-08-10T05:24:06.151Z,27.1
2022-08-10T05:30:26.629Z,27.19
2022-08-10T05:36:56.427Z,27.06
2022-08-10T05:43:33.253Z,27.04
2022-08-10T05:49:58.666Z,27.04
2022-08-10T05:56:25.122Z,27.04
2022-08-10T06:02:58.782Z,26.96
2022-08-10T06:09:58.439Z,26.91
2022-08-10T06:16:38.642Z,26.9
2022-08-10T06:23:10.331Z,26.85
2022-08-10T06:29:47.485Z,26.81
2022-08-10T06:36:33.949Z,26.83
2022-08-10T06:43:28.120Z,26.84
2022-08-10T06:50:35.182Z,26.82
2022-08-10T06:57:34.560Z,26.93
2022-08-10T07:04:33.791Z,27.05
2022-08-10T07:11:14.631Z,27.09
2022-08-10T07:17:55.327Z,27.12
2022-08-10T07:24:27.677Z,27.12
2022-08-10T07:31:31.213Z,27.16
2022-08-10T07:38:08.645Z,27.15
2022-08-10T07:44:51.758Z,27.16
2022-08-10T07:51:41.170Z,27.24
2022-08-10T07:58:26.234Z,27.25
2022-08-10T08:05:27.695Z,27.24
2022-08-10T08:12:17.288Z,27.22
2022-08-10T08:19:16.770Z,27.28
2022-08-10T08:25:53.207Z,27.32
2022-08-10T08:32:30.251Z,27.3
2022-08-10T08:39:19.457Z,27.32
2022-08-10T08:46:18.609Z,27.3
2022-08-10T08:53:21.812Z,27.31
2022-08-10T09:00:30.136Z,27.3
2022-08-10T09:07:39.668Z,27.29
2022-08-10T09:14:59.806Z,27.34
2022-08-10T09:22:13.569Z,27.37
2022-08-10T09:29:38.497Z,27.4
2022-08-10T09:36:54.212Z,27.42
2022-08-10T09:44:06.376Z,27.38
2022-08-10T09:58:40.217Z,27.41
2022-08-10T10:06:07.517Z,27.36
2022-08-10T10:13:18.841Z,27.44
2022-08-10T10:20:23.400Z,27.41
2022-08-10T10:27:23.768Z,27.48
2022-08-10T10:34:20.231Z,27.43
2022-08-10T10:41:21.351Z,27.5
2022-08-10T10:48:27.545Z,27.52
2022-08-10T10:55:30.352Z,27.41
2022-08-10T11:02:37.050Z,27.41
2022-08-10T11:10:04.369Z,27.46
2022-08-10T11:17:10.389Z,27.48
2022-08-10T11:24:42.379Z,27.47
2022-08-10T11:31:51.685Z,27.4
2022-08-10T11:39:14.179Z,27.34
2022-08-10T11:46:28.560Z,27.33
2022-08-10T11:53:40.294Z,27.36
2022-08-10T12:00:39.157Z,27.36
2022-08-10T12:08:55.159Z,27.37
2022-08-10T12:14:39.338Z,27.32
2022-08-10T12:21:45.263Z,27.35
2022-08-10T12:28:52.236Z,27.36
2022-08-10T12:36:17.222Z,27.33
2022-08-10T12:43:13.517Z,27.32
2022-08-10T12:50:37.363Z,27.33
2022-08-10T12:57:39.573Z,27.42
2022-08-10T13:04:27.378Z,27.41
2022-08-10T13:12:33.825Z,27.43
2022-08-10T13:18:25.288Z,27.46
2022-08-10T13:25:15.687Z,27.43
2022-08-10T13:32:09.475Z,27.45
2022-08-10T13:39:03.920Z,27.44
2022-08-10T13:45:50.187Z,27.48
2022-08-10T13:52:28.646Z,27.45
2022-08-10T13:59:16.013Z,27.49
2022-08-10T14:06:03.755Z,27.52
2022-08-10T14:12:50.488Z,27.57
2022-08-10T14:19:30.474Z,27.62
2022-08-10T14:26:32.288Z,27.62
2022-08-10T14:33:08.454Z,27.65
2022-08-10T14:40:06.925Z,27.59
2022-08-10T14:47:02.964Z,27.62
2022-08-10T14:53:58.662Z,27.64
2022-08-10T15:00:43.423Z,27.64
2022-08-10T15:07:32.046Z,27.69
2022-08-10T15:14:15.424Z,27.68
2022-08-10T15:21:02.401Z,27.72
2022-08-10T15:27:54.082Z,27.64
2022-08-10T15:34:42.483Z,27.66
2022-08-10T15:41:31.996Z,27.61
2022-08-10T15:48:42.634Z,27.66
2022-08-10T15:55:46.652Z,27.67
2022-08-10T16:02:59.590Z,27.7
2022-08-10T16:10:11.309Z,27.73
2022-08-10T16:17:12.425Z,27.76
2022-08-10T16:24:14.801Z,27.76
2022-08-10T16:30:55.764Z,27.78
2022-08-10T16:37:56.361Z,27.82
2022-08-10T16:44:47.480Z,27.82
2022-08-10T16:51:44.431Z,27.78
2022-08-10T16:58:20.436Z,27.8
2022-08-10T17:04:58.957Z,27.78
2022-08-10T17:11:46.532Z,27.69
2022-08-10T17:25:45.768Z,27.66
2022-08-10T17:32:34.607Z,27.65
2022-08-10T17:39:50.833Z,27.73
2022-08-10T17:46:44.510Z,27.71
2022-08-10T17:53:17.427Z,27.76
2022-08-10T17:59:50.532Z,27.7
2022-08-10T18:06:28.453Z,27.66
2022-08-10T18:13:10.794Z,27.63
2022-08-10T18:19:57.660Z,27.69
2022-08-10T18:26:51.527Z,27.74
2022-08-10T18:33:27.924Z,27.82
2022-08-10T18:40:15.526Z,27.66
2022-08-10T18:47:12.963Z,27.75
2022-08-10T18:54:31.508Z,27.63
2022-08-10T19:01:24.967Z,27.58
2022-08-10T19:08:35.380Z,27.58
2022-08-10T19:15:48.748Z,27.59
2022-08-10T19:22:49.386Z,27.55
2022-08-10T19:30:10.596Z,27.54
2022-08-10T19:37:15.453Z,27.54
2022-08-10T19:44:26.943Z,27.56
2022-08-10T19:51:46.718Z,27.51
2022-08-10T19:58:49.767Z,27.52
2022-08-10T20:06:13.656Z,27.49
2022-08-10T20:13:00.418Z,27.65
2022-08-10T20:20:12.384Z,27.69
2022-08-10T20:27:44.351Z,27.76
2022-08-10T20:34:41.490Z,27.77
2022-08-10T20:41:43.967Z,27.71
2022-08-10T20:48:45.512Z,27.79
2022-08-10T20:55:52.798Z,27.5
2022-08-10T21:03:06.731Z,27.51
2022-08-10T21:10:13.848Z,27.58
2022-08-10T21:17:10.644Z,27.58
2022-08-10T21:24:28.579Z,27.6
2022-08-10T21:31:46.137Z,27.63
2022-08-10T21:39:02.554Z,27.63
2022-08-10T21:46:16.185Z,27.66
2022-08-10T21:53:20.569Z,27.64
2022-08-10T22:00:56.678Z,27.64
2022-08-10T22:08:08.577Z,27.72
2022-08-10T22:15:14.586Z,27.72
2022-08-10T22:22:27.376Z,27.63
2022-08-10T22:29:50.802Z,27.62
2022-08-10T22:37:08.056Z,27.6
2022-08-10T22:44:10.791Z,27.61
2022-08-10T22:50:48.814Z,27.55
2022-08-10T22:57:53.840Z,27.57
2022-08-10T23:04:53.835Z,27.58
2022-08-10T23:12:07.764Z,27.59
2022-08-10T23:19:04.184Z,27.57
2022-08-10T23:25:59.775Z,27.57
2022-08-10T23:32:42.855Z,27.57
2022-08-10T23:39:27.133Z,27.55
2022-08-10T23:46:16.910Z,27.58
2022-08-10T23:53:13.921Z,27.56
